createdAt,value
2018-04-29T00:00:18.116Z,10.63
2018-04-29T00:02:51.640Z,8.17
2018-04-29T00:05:25.315Z,6.50
2018-04-29T00:07:58.876Z,7.37
2018-04-29T00:10:34.316Z,4.67
2018-04-29T00:13:09.043Z,6.40
2018-04-29T00:15:42.567Z,6.73
2018-04-29T00:18:16.075Z,8.63
2018-04-29T00:20:49.628Z,5.87
2018-04-29T00:23:23.194Z,7.03
2018-04-29T00:25:56.851Z,4.90
2018-04-29T00:28:30.408Z,7.37
2018-04-29T00:31:04.037Z,5.23
2018-04-29T00:33:37.592Z,5.57
2018-04-29T00:36:11.688Z,5.73
2018-04-29T00:38:45.480Z,7.10
2018-04-29T00:41:19.089Z,5.73
2018-04-29T00:43:52.620Z,12.13
2018-04-29T00:46:26.400Z,10.07
2018-04-29T00:48:59.934Z,9.80
2018-04-29T00:51:45.524Z,7.50
2018-04-29T00:54:19.396Z,7.97
2018-04-29T00:56:54.509Z,5.17
2018-04-29T00:59:28.256Z,11.70
2018-04-29T01:02:02.925Z,6.53
2018-04-29T01:04:36.692Z,7.03
2018-04-29T01:07:10.202Z,6.73
2018-04-29T01:09:43.728Z,4.20
2018-04-29T01:12:17.535Z,7.17
2018-04-29T01:14:51.071Z,9.70
2018-04-29T01:17:25.549Z,9.03
2018-04-29T01:19:59.235Z,11.43
2018-04-29T01:22:32.969Z,6.60
2018-04-29T01:25:06.528Z,9.93
2018-04-29T01:27:40.276Z,8.90
2018-04-29T01:30:14.865Z,9.87
2018-04-29T01:32:48.655Z,9.87
2018-04-29T01:35:22.458Z,8.27
2018-04-29T01:37:56.002Z,8.43
2018-04-29T01:40:29.723Z,9.30
2018-04-29T01:43:03.264Z,9.30
2018-04-29T01:45:37.000Z,6.20
2018-04-29T01:48:10.547Z,7.37
2018-04-29T01:50:44.167Z,8.63
2018-04-29T01:53:17.739Z,8.53
2018-04-29T01:55:51.399Z,6.47
2018-04-29T01:58:24.983Z,6.70
2018-04-29T02:00:58.736Z,7.87
2018-04-29T02:03:32.337Z,9.10
2018-04-29T02:06:06.077Z,6.03
2018-04-29T02:08:39.693Z,7.77
2018-04-29T02:11:13.391Z,5.93
2018-04-29T02:13:46.992Z,6.27
2018-04-29T02:16:20.744Z,6.63
2018-04-29T02:18:54.311Z,5.77
2018-04-29T02:21:27.917Z,6.13
2018-04-29T02:24:01.599Z,5.73
2018-04-29T02:26:35.228Z,8.73
2018-04-29T02:29:08.871Z,5.93
2018-04-29T02:31:42.336Z,7.87
2018-04-29T02:34:15.898Z,6.10
2018-04-29T02:36:49.459Z,7.47
2018-04-29T02:39:23.052Z,8.97
2018-04-29T02:41:56.644Z,6.43
2018-04-29T02:44:30.486Z,6.40
2018-04-29T02:47:13.195Z,5.17
2018-04-29T02:49:46.833Z,5.80
2018-04-29T02:52:20.359Z,5.40
2018-04-29T02:54:53.925Z,5.97
2018-04-29T02:57:27.452Z,7.67
2018-04-29T03:00:01.117Z,5.57
2018-04-29T03:02:34.645Z,5.97
2018-04-29T03:05:08.344Z,8.97
2018-04-29T03:07:41.876Z,8.10
2018-04-29T03:10:15.461Z,8.67
2018-04-29T03:12:49.016Z,6.57
2018-04-29T03:15:22.735Z,8.03
2018-04-29T03:17:56.433Z,7.77
2018-04-29T03:20:30.180Z,7.27
2018-04-29T03:23:03.972Z,22.67
2018-04-29T03:25:37.616Z,5.50
2018-04-29T03:28:11.132Z,5.20
2018-04-29T03:30:44.656Z,8.40
2018-04-29T03:33:18.276Z,7.07
2018-04-29T03:35:51.871Z,6.80
2018-04-29T03:38:25.496Z,10.20
2018-04-29T03:40:59.000Z,6.53
2018-04-29T03:43:32.867Z,9.53
2018-04-29T03:46:06.420Z,6.70
2018-04-29T03:48:39.988Z,5.40
2018-04-29T03:51:13.605Z,6.70
2018-04-29T03:53:47.225Z,7.93
2018-04-29T03:56:20.776Z,6.67
2018-04-29T03:59:06.348Z,7.07
2018-04-29T04:01:51.984Z,6.43
2018-04-29T04:04:25.664Z,8.77
2018-04-29T04:06:59.324Z,5.83
2018-04-29T04:09:32.851Z,9.83
2018-04-29T04:12:06.528Z,8.03
2018-04-29T04:14:40.140Z,7.23
2018-04-29T04:17:13.819Z,7.77
2018-04-29T04:19:47.379Z,6.53
2018-04-29T04:22:21.012Z,4.80
2018-04-29T04:24:54.616Z,5.67
2018-04-29T04:27:28.216Z,6.73
2018-04-29T04:30:01.797Z,7.07
2018-04-29T04:32:35.356Z,5.87
2018-04-29T04:35:09.075Z,6.20
2018-04-29T04:37:42.758Z,6.97
2018-04-29T04:40:16.733Z,7.57
2018-04-29T04:42:50.315Z,8.70
2018-04-29T04:45:24.077Z,6.13
2018-04-29T04:47:57.807Z,4.73
2018-04-29T04:50:31.443Z,5.37
2018-04-29T04:53:04.996Z,5.83
2018-04-29T04:55:38.508Z,8.30
2018-04-29T04:58:12.196Z,9.17
2018-04-29T05:00:45.792Z,5.37
2018-04-29T05:03:19.624Z,5.73
2018-04-29T05:05:53.152Z,8.37
2018-04-29T05:08:26.705Z,5.67
2018-04-29T05:11:00.212Z,7.90
2018-04-29T05:13:33.768Z,6.70
2018-04-29T05:16:07.287Z,7.80
2018-04-29T05:18:40.860Z,6.67
2018-04-29T05:21:14.368Z,7.73
2018-04-29T05:23:47.924Z,8.07
2018-04-29T05:26:21.551Z,6.50
2018-04-29T05:28:55.437Z,5.33
2018-04-29T05:31:29.102Z,6.13
2018-04-29T05:34:02.724Z,8.60
2018-04-29T05:36:36.305Z,6.37
2018-04-29T05:39:10.105Z,5.23
2018-04-29T05:41:43.769Z,7.20
2018-04-29T05:44:17.368Z,4.27
2018-04-29T05:46:51.008Z,8.93
2018-04-29T05:49:24.607Z,5.07
2018-04-29T05:51:58.247Z,6.40
2018-04-29T05:54:32.058Z,7.27
2018-04-29T05:57:05.591Z,4.83
2018-04-29T05:59:39.118Z,5.93
2018-04-29T06:02:12.848Z,7.00
2018-04-29T06:04:46.404Z,5.53
2018-04-29T06:07:20.288Z,6.63
2018-04-29T06:09:53.895Z,8.20
2018-04-29T06:12:27.572Z,4.83
2018-04-29T06:15:01.133Z,7.13
2018-04-29T06:17:34.661Z,7.40
2018-04-29T06:20:08.287Z,8.27
2018-04-29T06:22:42.047Z,5.40
2018-04-29T06:25:16.396Z,9.70
2018-04-29T06:27:49.975Z,6.73
2018-04-29T06:30:23.735Z,6.90
2018-04-29T06:32:57.475Z,9.70
2018-04-29T06:35:30.975Z,6.53
2018-04-29T06:38:04.720Z,6.50
2018-04-29T06:40:38.318Z,5.83
2018-04-29T06:43:12.072Z,7.70
2018-04-29T06:45:45.704Z,6.10
2018-04-29T06:48:19.345Z,7.70
2018-04-29T06:50:53.050Z,7.17
2018-04-29T06:53:26.622Z,5.60
2018-04-29T06:56:00.136Z,5.17
2018-04-29T06:58:33.701Z,5.63
2018-04-29T07:01:07.404Z,8.37
2018-04-29T07:03:41.035Z,8.10
2018-04-29T07:06:14.892Z,6.67
2018-04-29T07:08:48.549Z,6.70
2018-04-29T07:11:22.587Z,4.20
2018-04-29T07:13:56.287Z,6.80
2018-04-29T07:16:29.923Z,7.43
2018-04-29T07:19:03.596Z,6.37
2018-04-29T07:21:37.323Z,7.77
2018-04-29T07:24:11.160Z,6.67
2018-04-29T07:26:44.688Z,6.90
2018-04-29T07:29:18.268Z,8.93
2018-04-29T07:31:51.865Z,4.97
2018-04-29T07:34:25.619Z,9.30
2018-04-29T07:36:59.253Z,7.73
2018-04-29T07:39:33.232Z,6.03
2018-04-29T07:42:06.756Z,6.43
2018-04-29T07:44:40.621Z,9.50
2018-04-29T07:47:14.371Z,8.73
2018-04-29T07:49:48.130Z,7.60
2018-04-29T07:52:22.022Z,4.37
2018-04-29T07:54:55.703Z,7.43
2018-04-29T07:57:29.305Z,10.27
2018-04-29T08:00:02.856Z,7.57
2018-04-29T08:02:36.538Z,10.30
2018-04-29T08:05:10.295Z,7.23
2018-04-29T08:07:43.815Z,6.03
2018-04-29T08:10:17.592Z,5.67
2018-04-29T08:12:51.291Z,7.23
2018-04-29T08:15:24.955Z,5.50
2018-04-29T08:17:58.767Z,9.20
2018-04-29T08:20:32.238Z,5.33
2018-04-29T08:23:05.764Z,6.30
2018-04-29T08:25:39.343Z,7.43
2018-04-29T08:28:13.051Z,5.63
2018-04-29T08:30:46.587Z,7.93
2018-04-29T08:33:20.360Z,5.67
2018-04-29T08:35:54.136Z,4.37
2018-04-29T08:38:27.685Z,4.80
2018-04-29T08:41:01.518Z,7.13
2018-04-29T08:43:35.316Z,4.83
2018-04-29T08:46:09.053Z,5.67
2018-04-29T08:48:42.839Z,7.40
2018-04-29T08:51:16.415Z,11.13
2018-04-29T08:53:50.050Z,8.00
2018-04-29T08:59:22.479Z,3.90
2018-04-29T09:01:56.174Z,5.23
2018-04-29T09:04:29.947Z,4.83
2018-04-29T09:07:03.501Z,6.10
2018-04-29T09:09:37.159Z,5.10
2018-04-29T09:12:10.897Z,4.40
2018-04-29T09:14:44.571Z,5.37
2018-04-29T09:17:18.948Z,5.40
2018-04-29T09:19:52.740Z,5.73
2018-04-29T09:22:26.715Z,6.30
2018-04-29T09:25:00.371Z,7.90
2018-04-29T09:27:33.867Z,7.70
2018-04-29T09:30:07.416Z,4.57
2018-04-29T09:32:41.052Z,4.67
2018-04-29T09:35:14.581Z,6.63
2018-04-29T09:37:48.140Z,6.60
2018-04-29T09:40:21.900Z,4.63
2018-04-29T09:42:55.456Z,5.37
2018-04-29T09:45:29.015Z,6.80
2018-04-29T09:48:02.727Z,6.03
2018-04-29T09:50:36.264Z,5.80
2018-04-29T09:53:09.822Z,7.03
2018-04-29T09:55:43.493Z,7.13
2018-04-29T09:58:17.052Z,6.57
2018-04-29T10:00:50.587Z,4.00
2018-04-29T10:03:24.144Z,4.10
2018-04-29T10:05:57.672Z,3.60
2018-04-29T10:08:31.240Z,3.13
2018-04-29T10:11:04.820Z,3.40
2018-04-29T10:13:42.912Z,3.80
2018-04-29T10:16:16.607Z,3.47
2018-04-29T10:18:50.348Z,3.67
2018-04-29T10:21:23.969Z,3.63
2018-04-29T10:23:57.652Z,5.13
2018-04-29T10:26:31.324Z,2.90
2018-04-29T10:29:04.921Z,3.60
2018-04-29T10:31:38.548Z,3.67
2018-04-29T10:34:12.196Z,2.83
2018-04-29T10:36:46.009Z,3.87
2018-04-29T10:39:19.565Z,2.47
2018-04-29T10:41:53.158Z,4.10
2018-04-29T10:44:26.824Z,2.97
2018-04-29T10:47:00.596Z,3.93
2018-04-29T10:49:34.397Z,4.10
2018-04-29T10:52:07.925Z,3.27
2018-04-29T10:54:41.512Z,3.50
2018-04-29T10:57:15.121Z,7.47
2018-04-29T10:59:48.697Z,3.73
2018-04-29T11:02:22.280Z,3.63
2018-04-29T11:04:56.039Z,7.03
2018-04-29T11:07:29.607Z,3.33
2018-04-29T11:10:03.257Z,4.57
2018-04-29T11:12:36.939Z,3.90
2018-04-29T11:15:10.635Z,2.47
2018-04-29T11:17:44.625Z,4.77
2018-04-29T11:20:18.352Z,4.90
2018-04-29T11:22:52.119Z,3.50
2018-04-29T11:25:25.842Z,5.00
2018-04-29T11:27:59.404Z,3.90
2018-04-29T11:30:32.923Z,5.23
2018-04-29T11:33:06.420Z,3.20
2018-04-29T11:35:40.216Z,2.83
2018-04-29T11:38:13.796Z,4.53
2018-04-29T11:40:47.516Z,5.60
2018-04-29T11:43:21.271Z,7.03
2018-04-29T11:45:54.826Z,4.23
2018-04-29T11:48:28.303Z,3.43
2018-04-29T11:51:01.888Z,3.70
2018-04-29T11:53:35.640Z,3.10
2018-04-29T11:56:09.220Z,3.87
2018-04-29T11:58:42.757Z,6.83
2018-04-29T12:01:16.436Z,6.23
2018-04-29T12:03:49.953Z,3.93
2018-04-29T12:06:36.621Z,5.27
2018-04-29T12:09:10.363Z,3.67
2018-04-29T12:11:43.836Z,4.73
2018-04-29T12:14:17.344Z,5.87
2018-04-29T12:16:50.974Z,4.43
2018-04-29T12:19:24.613Z,3.37
2018-04-29T12:21:58.184Z,5.17
2018-04-29T12:24:31.761Z,4.20
2018-04-29T12:27:05.503Z,4.53
2018-04-29T12:29:39.294Z,6.47
2018-04-29T12:32:13.088Z,5.63
2018-04-29T12:34:46.724Z,5.47
2018-04-29T12:37:20.281Z,5.30
2018-04-29T12:39:53.884Z,6.00
2018-04-29T12:42:27.569Z,5.63
2018-04-29T12:45:01.232Z,5.97
2018-04-29T12:47:34.872Z,4.77
2018-04-29T12:50:08.385Z,6.27
2018-04-29T12:52:42.020Z,4.83
2018-04-29T12:55:15.596Z,5.60
2018-04-29T12:57:49.132Z,3.43
2018-04-29T13:00:22.682Z,3.90
2018-04-29T13:02:56.441Z,4.77
2018-04-29T13:05:30.123Z,3.57
2018-04-29T13:08:03.576Z,5.27
2018-04-29T13:10:37.152Z,3.73
2018-04-29T13:13:10.941Z,5.70
2018-04-29T13:15:44.575Z,6.10
2018-04-29T13:18:18.306Z,5.10
2018-04-29T13:20:51.888Z,4.43
2018-04-29T13:23:25.426Z,4.33
2018-04-29T13:25:59.144Z,5.97
2018-04-29T13:28:32.708Z,6.67
2018-04-29T13:31:06.499Z,7.30
2018-04-29T13:33:40.156Z,7.50
2018-04-29T13:36:13.905Z,9.37
2018-04-29T13:38:47.618Z,5.23
2018-04-29T13:41:21.389Z,7.47
2018-04-29T13:43:55.202Z,6.70
2018-04-29T13:46:29.108Z,7.13
2018-04-29T13:49:02.592Z,3.67
2018-04-29T13:51:36.136Z,4.80
2018-04-29T13:54:09.704Z,4.23
2018-04-29T13:56:43.513Z,4.50
2018-04-29T13:59:17.166Z,6.80
2018-04-29T14:01:50.780Z,5.00
2018-04-29T14:04:24.304Z,6.03
2018-04-29T14:06:57.960Z,3.47
2018-04-29T14:09:31.471Z,4.73
2018-04-29T14:12:05.227Z,4.47
2018-04-29T14:14:38.789Z,5.90
2018-04-29T14:17:12.564Z,5.37
2018-04-29T14:19:46.201Z,4.63
2018-04-29T14:22:20.094Z,4.73
2018-04-29T14:24:53.560Z,5.43
2018-04-29T14:27:27.352Z,5.37
2018-04-29T14:30:01.067Z,4.10
2018-04-29T14:32:34.690Z,7.20
2018-04-29T14:35:08.312Z,5.57
2018-04-29T14:37:42.287Z,6.17
2018-04-29T14:40:16.025Z,7.93
2018-04-29T14:42:49.530Z,6.27
2018-04-29T14:45:23.141Z,7.63
2018-04-29T14:47:56.897Z,4.53
2018-04-29T14:50:30.480Z,4.13
2018-04-29T14:53:04.314Z,6.40
2018-04-29T14:55:37.935Z,7.27
2018-04-29T14:58:11.557Z,5.27
2018-04-29T15:00:45.130Z,7.93
2018-04-29T15:03:18.905Z,6.57
2018-04-29T15:05:52.509Z,10.97
2018-04-29T15:08:26.021Z,8.97
2018-04-29T15:10:59.679Z,6.87
2018-04-29T15:13:33.260Z,7.67
2018-04-29T15:16:07.275Z,7.83
2018-04-29T15:18:52.872Z,9.77
2018-04-29T15:21:26.563Z,7.33
2018-04-29T15:24:00.363Z,7.20
2018-04-29T15:26:33.968Z,9.77
2018-04-29T15:29:07.529Z,5.70
2018-04-29T15:31:41.187Z,9.30
2018-04-29T15:34:14.959Z,8.93
2018-04-29T15:36:48.684Z,11.77
2018-04-29T15:39:23.395Z,13.07
2018-04-29T15:41:57.152Z,7.60
2018-04-29T15:44:30.712Z,13.73
2018-04-29T15:47:04.788Z,11.30
2018-04-29T15:49:38.437Z,11.97
2018-04-29T15:52:12.028Z,8.00
2018-04-29T15:54:45.665Z,10.70
2018-04-29T15:57:19.224Z,11.83
2018-04-29T15:59:52.795Z,7.30
2018-04-29T16:02:26.356Z,11.03
2018-04-29T16:04:59.992Z,7.07
2018-04-29T16:07:33.813Z,6.50
2018-04-29T16:10:07.452Z,5.67
2018-04-29T16:12:41.256Z,5.90
2018-04-29T16:15:14.744Z,6.23
2018-04-29T16:17:48.547Z,10.07
2018-04-29T16:20:22.084Z,10.00
2018-04-29T16:22:55.612Z,7.17
2018-04-29T16:25:29.155Z,7.07
2018-04-29T16:28:02.900Z,9.47
2018-04-29T16:30:36.468Z,8.37
2018-04-29T16:33:09.996Z,8.77
2018-04-29T16:35:43.573Z,8.97
2018-04-29T16:38:17.310Z,8.50
2018-04-29T16:40:50.997Z,12.23
2018-04-29T16:43:24.526Z,8.07
2018-04-29T16:45:58.333Z,10.87
2018-04-29T16:48:31.882Z,8.63
2018-04-29T16:51:05.613Z,9.70
2018-04-29T16:53:39.228Z,8.70
2018-04-29T16:56:12.787Z,53.10
2018-04-29T16:58:46.408Z,11.20
2018-04-29T17:01:20.049Z,20.23
2018-04-29T17:03:53.696Z,13.73
2018-04-29T17:06:27.411Z,25.47
2018-04-29T17:09:01.060Z,9.73
2018-04-29T17:11:34.667Z,74.77
2018-04-29T17:14:08.347Z,7.77
2018-04-29T17:16:41.972Z,9.13
2018-04-29T17:19:15.508Z,6.13
2018-04-29T17:21:49.132Z,6.03
2018-04-29T17:24:22.652Z,8.23
2018-04-29T17:26:56.207Z,9.03
2018-04-29T17:29:29.975Z,8.60
2018-04-29T17:32:03.504Z,8.47
2018-04-29T17:34:37.184Z,6.40
2018-04-29T17:37:10.744Z,8.03
2018-04-29T17:39:44.443Z,8.40
2018-04-29T17:42:18.221Z,9.27
2018-04-29T17:44:51.938Z,5.43
2018-04-29T17:47:25.695Z,6.53
2018-04-29T17:49:59.500Z,9.33
2018-04-29T17:52:33.064Z,9.57
2018-04-29T17:55:06.740Z,10.17
2018-04-29T17:57:40.408Z,6.87
2018-04-29T18:00:14.253Z,6.83
2018-04-29T18:02:47.897Z,9.00
2018-04-29T18:05:21.704Z,6.37
2018-04-29T18:07:55.313Z,9.30
2018-04-29T18:10:28.936Z,11.93
2018-04-29T18:13:02.469Z,13.57
2018-04-29T18:15:36.168Z,6.13
2018-04-29T18:18:09.832Z,8.33
2018-04-29T18:20:43.585Z,5.93
2018-04-29T18:23:17.117Z,5.43
2018-04-29T18:25:50.797Z,7.23
2018-04-29T18:28:24.328Z,8.03
2018-04-29T18:30:57.957Z,5.60
2018-04-29T18:33:31.697Z,7.37
2018-04-29T18:36:05.472Z,10.57
2018-04-29T18:38:39.284Z,6.93
2018-04-29T18:41:12.894Z,6.10
2018-04-29T18:43:46.676Z,7.80
2018-04-29T18:46:20.234Z,6.30
2018-04-29T18:48:53.844Z,7.17
2018-04-29T18:51:27.949Z,9.50
2018-04-29T18:54:01.456Z,7.93
2018-04-29T18:56:35.092Z,11.30
2018-04-29T18:59:08.880Z,5.47
2018-04-29T19:01:42.409Z,5.30
2018-04-29T19:04:16.216Z,7.17
2018-04-29T19:06:49.746Z,6.77
2018-04-29T19:09:23.346Z,7.23
2018-04-29T19:11:57.085Z,9.10
2018-04-29T19:14:30.830Z,7.27
2018-04-29T19:17:04.587Z,8.60
2018-04-29T19:19:38.131Z,10.23
2018-04-29T19:22:11.745Z,11.00
2018-04-29T19:24:45.501Z,11.40
2018-04-29T19:27:19.154Z,8.27
2018-04-29T19:29:52.984Z,7.70
2018-04-29T19:32:26.534Z,8.43
2018-04-29T19:35:00.072Z,5.70
2018-04-29T19:37:33.795Z,10.47
2018-04-29T19:40:07.566Z,10.30
2018-04-29T19:42:41.096Z,9.73
2018-04-29T19:45:14.804Z,5.70
2018-04-29T19:47:48.461Z,7.53
2018-04-29T19:50:22.003Z,8.77
2018-04-29T19:52:55.771Z,7.07
2018-04-29T19:55:29.623Z,7.00
2018-04-29T19:58:03.235Z,7.97
2018-04-29T20:00:36.907Z,6.77
2018-04-29T20:03:10.570Z,4.37
2018-04-29T20:05:44.105Z,9.73
2018-04-29T20:08:17.799Z,6.03
2018-04-29T20:10:51.443Z,7.20
2018-04-29T20:13:25.085Z,7.20
2018-04-29T20:15:58.808Z,5.20
2018-04-29T20:18:32.343Z,6.03
2018-04-29T20:21:06.436Z,6.73
2018-04-29T20:23:39.960Z,8.57
2018-04-29T20:26:23.980Z,11.33
2018-04-29T20:28:57.592Z,5.87
2018-04-29T20:31:31.351Z,9.83
2018-04-29T20:34:05.007Z,7.30
2018-04-29T20:39:43.508Z,7.13
2018-04-29T20:42:17.124Z,7.40
2018-04-29T20:44:50.664Z,6.77
2018-04-29T20:47:24.331Z,6.87
2018-04-29T20:49:57.895Z,5.93
2018-04-29T20:52:31.480Z,7.33
2018-04-29T20:55:05.196Z,7.63
2018-04-29T20:57:38.901Z,6.73
2018-04-29T21:00:12.426Z,6.00
2018-04-29T21:02:45.989Z,7.33
2018-04-29T21:05:19.512Z,6.47
2018-04-29T21:07:53.088Z,8.13
2018-04-29T21:10:26.673Z,6.77
2018-04-29T21:13:00.430Z,7.40
2018-04-29T21:15:34.372Z,5.63
2018-04-29T21:18:07.992Z,8.97
2018-04-29T21:20:41.535Z,6.87
2018-04-29T21:23:15.163Z,9.30
2018-04-29T21:25:48.624Z,9.20
2018-04-29T21:28:22.204Z,8.13
2018-04-29T21:30:55.953Z,7.47
2018-04-29T21:33:29.506Z,8.43
2018-04-29T21:36:03.492Z,6.00
2018-04-29T21:38:37.017Z,8.10
2018-04-29T21:41:10.822Z,7.97
2018-04-29T21:43:44.343Z,8.40
2018-04-29T21:46:18.028Z,9.63
2018-04-29T21:48:51.774Z,10.10
2018-04-29T21:51:25.425Z,11.03
2018-04-29T21:53:58.931Z,9.13
2018-04-29T21:56:32.556Z,8.37
2018-04-29T21:59:06.080Z,9.87
2018-04-29T22:01:39.600Z,7.87
2018-04-29T22:04:13.134Z,7.73
2018-04-29T22:06:46.685Z,8.50
2018-04-29T22:09:20.295Z,7.73
2018-04-29T22:11:53.881Z,7.77
2018-04-29T22:14:27.390Z,6.13
2018-04-29T22:17:01.171Z,9.50
2018-04-29T22:19:34.833Z,6.77
2018-04-29T22:22:08.353Z,6.07
2018-04-29T22:24:41.979Z,7.40
2018-04-29T22:27:15.619Z,7.53
2018-04-29T22:29:49.178Z,6.33
2018-04-29T22:32:22.847Z,6.73
2018-04-29T22:34:56.487Z,9.23
2018-04-29T22:37:30.264Z,9.80
2018-04-29T22:40:03.954Z,8.23
2018-04-29T22:42:37.554Z,7.30
2018-04-29T22:45:11.016Z,9.90
2018-04-29T22:47:44.776Z,14.27
2018-04-29T22:50:18.327Z,13.17
2018-04-29T22:52:52.039Z,14.10
2018-04-29T22:55:25.981Z,17.70
2018-04-29T22:57:59.629Z,19.43
2018-04-29T23:00:33.272Z,18.10
2018-04-29T23:03:06.900Z,17.27
2018-04-29T23:05:40.405Z,21.57
2018-04-29T23:08:14.167Z,20.57
2018-04-29T23:10:47.844Z,16.93
2018-04-29T23:13:21.421Z,24.50
2018-04-29T23:15:55.035Z,24.50
2018-04-29T23:18:28.651Z,26.27
2018-04-29T23:21:02.396Z,40.40
2018-04-29T23:23:35.944Z,46.97
2018-04-29T23:26:09.505Z,45.70
2018-04-29T23:28:43.117Z,48.07
2018-04-29T23:31:16.928Z,60.27
2018-04-29T23:33:50.629Z,64.30
2018-04-29T23:36:24.403Z,71.33
2018-04-29T23:38:57.992Z,78.63
2018-04-29T23:41:31.563Z,89.53
2018-04-29T23:44:05.357Z,86.67
2018-04-29T23:46:39.089Z,95.73
2018-04-29T23:49:12.717Z,120.83
2018-04-29T23:51:46.332Z,199.10
2018-04-29T23:54:19.881Z,180.07
2018-04-29T23:56:53.476Z,260.57
2018-04-29T23:59:27.140Z,351.83
